createdAt,value
2022-08-17T00:02:26.600Z,99094.56
2022-08-17T00:04:55.133Z,99091.88
2022-08-17T00:07:23.241Z,99081.56
2022-08-17T00:09:50.328Z,99085.59
2022-08-17T00:12:43.317Z,99082.91
2022-08-17T00:15:10.606Z,99077.03
2022-08-17T00:17:38.679Z,99073.41
2022-08-17T00:20:06.611Z,99075.91
2022-08-17T00:22:37.008Z,99070.72
2022-08-17T00:25:15.074Z,99070.53
2022-08-17T00:27:42.339Z,99065.56
2022-08-17T00:30:12.320Z,99058.63
2022-08-17T00:33:15.641Z,99057.81
2022-08-17T00:35:30.980Z,99058.72
2022-08-17T00:37:57.795Z,99059.63
2022-08-17T00:40:25.303Z,99055.41
2022-08-17T00:42:53.412Z,99047.03
2022-08-17T00:45:21.124Z,99048.16
2022-08-17T00:47:49.453Z,99045.63
2022-08-17T00:50:19.161Z,99054.50
2022-08-17T00:52:55.876Z,99051.31
2022-08-17T00:55:25.695Z,99057.50
2022-08-17T00:57:58.847Z,99054.19
2022-08-17T01:00:38.306Z,99048.47
2022-08-17T01:03:21.389Z,99047.09
2022-08-17T01:05:52.863Z,99047.09
2022-08-17T01:08:25.822Z,99047.22
2022-08-17T01:11:01.777Z,99032.91
2022-08-17T01:13:40.728Z,99040.75
2022-08-17T01:16:17.870Z,99042.53
2022-08-17T01:18:54.377Z,99052.00
2022-08-17T01:22:03.211Z,99043.91
2022-08-17T01:24:31.083Z,99030.19
2022-08-17T01:27:01.997Z,99037.81
2022-08-17T01:29:31.669Z,99040.56
2022-08-17T01:32:05.588Z,99046.38
2022-08-17T01:34:43.817Z,99042.16
2022-08-17T01:37:19.856Z,99049.81
2022-08-17T01:40:05.727Z,99052.47
2022-08-17T01:43:05.943Z,99049.06
2022-08-17T01:45:43.094Z,99050.63
2022-08-17T01:48:12.126Z,99055.00
2022-08-17T01:50:43.819Z,99053.97
2022-08-17T01:53:32.510Z,99050.53
2022-08-17T01:56:08.527Z,99053.03
2022-08-17T01:58:38.501Z,99049.53
2022-08-17T02:01:07.270Z,99052.00
2022-08-17T02:03:36.589Z,99043.22
2022-08-17T02:06:27.260Z,99044.09
2022-08-17T02:09:02.870Z,99042.41
2022-08-17T02:11:34.325Z,99032.09
2022-08-17T02:14:04.022Z,99030.31
2022-08-17T02:16:37.137Z,99030.31
2022-08-17T02:19:08.632Z,99033.00
2022-08-17T02:21:38.040Z,99023.78
2022-08-17T02:24:10.968Z,99027.28
2022-08-17T02:26:38.143Z,99023.88
2022-08-17T02:29:05.088Z,99023.13
2022-08-17T02:31:32.105Z,99039.50
2022-08-17T02:34:03.712Z,99027.66
2022-08-17T02:36:32.121Z,99021.78
2022-08-17T02:39:02.485Z,99027.88
2022-08-17T02:41:29.730Z,99011.00
2022-08-17T02:43:56.695Z,99023.91
2022-08-17T02:46:23.528Z,99018.88
2022-08-17T02:48:50.573Z,99018.16
2022-08-17T02:51:17.600Z,99018.28
2022-08-17T02:53:46.208Z,99015.97
2022-08-17T02:56:13.634Z,99015.13
2022-08-17T02:58:40.586Z,99022.13
2022-08-17T03:01:10.193Z,99014.59
2022-08-17T03:03:39.079Z,99012.09
2022-08-17T03:06:07.622Z,99009.59
2022-08-17T03:08:35.067Z,99007.22
2022-08-17T03:11:02.329Z,99004.72
2022-08-17T03:13:30.961Z,99003.97
2022-08-17T03:15:58.043Z,99010.34
2022-08-17T03:18:26.350Z,99007.06
2022-08-17T03:20:56.941Z,99013.13
2022-08-17T03:23:25.453Z,99009.09
2022-08-17T03:25:54.441Z,99010.00
2022-08-17T03:28:22.910Z,99010.16
2022-08-17T03:30:51.224Z,99004.38
2022-08-17T03:33:19.444Z,99007.22
2022-08-17T03:35:49.529Z,99009.09
2022-08-17T03:38:17.327Z,99010.72
2022-08-17T03:40:56.819Z,99006.41
2022-08-17T03:43:30.885Z,99008.13
2022-08-17T03:46:34.126Z,99015.72
2022-08-17T03:49:26.690Z,99023.56
2022-08-17T03:52:14.535Z,99011.56
2022-08-17T03:55:01.624Z,99008.78
2022-08-17T03:57:29.186Z,99016.34
2022-08-17T03:59:56.341Z,99012.84
2022-08-17T04:02:30.528Z,99015.16
2022-08-17T04:04:58.543Z,99013.41
2022-08-17T04:07:30.180Z,99020.88
2022-08-17T04:09:58.056Z,99021.59
2022-08-17T04:12:30.725Z,99016.16
2022-08-17T04:14:58.408Z,99036.53
2022-08-17T04:17:28.754Z,99030.19
2022-08-17T04:19:56.977Z,99034.34
2022-08-17T04:22:31.882Z,99031.44
2022-08-17T04:25:15.995Z,99040.03
2022-08-17T04:27:42.859Z,99046.94
2022-08-17T04:30:10.846Z,99062.19
2022-08-17T04:33:06.030Z,99086.03
2022-08-17T04:35:50.256Z,99085.97
2022-08-17T04:38:22.402Z,99083.31
2022-08-17T04:41:07.995Z,99084.03
2022-08-17T04:43:36.995Z,99079.72
2022-08-17T04:46:11.184Z,99088.94
2022-08-17T04:48:43.269Z,99087.06
2022-08-17T04:51:25.874Z,99083.41
2022-08-17T04:53:58.119Z,99095.22
2022-08-17T04:56:27.611Z,99099.97
2022-08-17T04:58:59.462Z,99087.72
2022-08-17T05:01:31.185Z,99100.16
2022-08-17T05:04:32.956Z,99110.13
2022-08-17T05:06:51.288Z,99111.59
2022-08-17T05:09:18.654Z,99111.38
2022-08-17T05:11:46.627Z,99117.84
2022-08-17T05:14:14.280Z,99119.41
2022-08-17T05:16:41.261Z,99109.63
2022-08-17T05:19:08.285Z,99113.59
2022-08-17T05:21:35.478Z,99110.78
2022-08-17T05:24:03.698Z,99113.09
2022-08-17T05:26:43.855Z,99098.41
2022-08-17T05:29:10.659Z,99101.53
2022-08-17T05:31:37.523Z,99094.41
2022-08-17T05:34:04.305Z,99107.06
2022-08-17T05:36:38.070Z,99102.59
2022-08-17T05:39:16.545Z,99098.19
2022-08-17T05:41:47.108Z,99100.66
2022-08-17T05:44:14.444Z,99104.72
2022-08-17T05:46:49.832Z,99109.59
2022-08-17T05:49:25.653Z,99103.69
2022-08-17T05:52:31.385Z,99112.19
2022-08-17T05:55:37.860Z,99113.09
2022-08-17T05:58:23.892Z,99118.06
2022-08-17T06:01:21.213Z,99126.56
2022-08-17T06:04:20.688Z,99133.19
2022-08-17T06:07:06.665Z,99127.81
2022-08-17T06:10:16.869Z,99124.22
2022-08-17T06:13:27.510Z,99114.59
2022-08-17T06:16:28.172Z,99105.59
2022-08-17T06:19:22.937Z,99101.88
2022-08-17T06:21:54.186Z,99098.81
2022-08-17T06:24:51.336Z,99095.94
2022-08-17T06:27:32.872Z,99106.72
2022-08-17T06:30:20.549Z,99118.31
2022-08-17T06:32:50.282Z,99115.19
2022-08-17T06:35:34.086Z,99136.03
2022-08-17T06:38:38.195Z,99125.88
2022-08-17T06:41:55.673Z,99121.72
2022-08-17T06:44:50.920Z,99111.41
2022-08-17T06:47:47.441Z,99110.53
2022-08-17T06:50:44.369Z,99118.31
2022-08-17T06:53:42.891Z,99114.75
2022-08-17T06:56:19.169Z,99120.50
2022-08-17T06:58:46.715Z,99119.75
2022-08-17T07:01:26.783Z,99123.97
2022-08-17T07:04:11.862Z,99129.13
2022-08-17T07:06:58.126Z,99146.50
2022-08-17T07:09:35.493Z,99149.84
2022-08-17T07:12:22.377Z,99143.31
2022-08-17T07:15:04.400Z,99156.31
2022-08-17T07:17:47.263Z,99149.75
2022-08-17T07:20:23.059Z,99150.94
2022-08-17T07:23:21.059Z,99167.88
2022-08-17T07:25:49.629Z,99164.78
2022-08-17T07:28:23.057Z,99168.59
2022-08-17T07:30:55.091Z,99172.50
2022-08-17T07:33:30.943Z,99166.25
2022-08-17T07:35:59.316Z,99173.84
2022-08-17T07:38:35.472Z,99166.84
2022-08-17T07:41:08.430Z,99181.31
2022-08-17T07:43:46.983Z,99189.09
2022-08-17T07:46:52.634Z,99188.16
2022-08-17T07:49:33.906Z,99189.09
2022-08-17T07:52:51.034Z,99191.69
2022-08-17T07:55:34.800Z,99196.91
2022-08-17T07:58:01.990Z,99192.53
2022-08-17T08:00:32.123Z,99202.81
2022-08-17T08:03:27.188Z,99209.06
2022-08-17T08:06:02.585Z,99215.81
2022-08-17T08:08:42.689Z,99220.16
2022-08-17T08:11:27.842Z,99217.22
2022-08-17T08:13:54.749Z,99212.72
2022-08-17T08:16:31.203Z,99218.22
2022-08-17T08:19:02.145Z,99227.19
2022-08-17T08:21:51.515Z,99232.63
2022-08-17T08:24:32.311Z,99230.06
2022-08-17T08:27:22.109Z,99237.88
2022-08-17T08:30:08.721Z,99244.53
2022-08-17T08:32:52.083Z,99244.53
2022-08-17T08:35:34.240Z,99251.28
2022-08-17T08:38:20.005Z,99250.56
2022-08-17T08:41:04.992Z,99261.81
2022-08-17T08:44:14.215Z,99254.59
2022-08-17T08:47:02.933Z,99248.75
2022-08-17T08:50:37.086Z,99249.47
2022-08-17T08:53:26.431Z,99241.78
2022-08-17T08:56:01.666Z,99242.59
2022-08-17T08:59:15.624Z,99244.28
2022-08-17T09:02:35.664Z,99247.56
2022-08-17T09:05:49.275Z,99271.50
2022-08-17T09:08:33.834Z,99280.59
2022-08-17T09:11:22.924Z,99283.69
2022-08-17T09:14:31.264Z,99287.94
2022-08-17T09:17:21.371Z,99284.63
2022-08-17T09:20:11.235Z,99287.88
2022-08-17T09:22:51.222Z,99296.59
2022-08-17T09:25:32.845Z,99291.00
2022-08-17T09:28:19.147Z,99286.97
2022-08-17T09:30:52.675Z,99291.56
2022-08-17T09:33:27.180Z,99298.63
2022-08-17T09:36:05.404Z,99303.97
2022-08-17T09:38:43.957Z,99312.63
2022-08-17T09:41:49.177Z,99304.47
2022-08-17T09:44:47.074Z,99301.19
2022-08-17T09:47:40.597Z,99296.94
2022-08-17T09:50:20.256Z,99290.75
2022-08-17T09:53:08.053Z,99284.13
2022-08-17T09:56:03.108Z,99277.13
2022-08-17T09:59:20.646Z,99264.59
2022-08-17T10:02:25.403Z,99273.09
2022-08-17T10:05:19.582Z,99266.81
2022-08-17T10:08:09.383Z,99267.00
2022-08-17T10:10:56.716Z,99271.31
2022-08-17T10:13:53.422Z,99262.03
2022-08-17T10:16:44.821Z,99243.19
2022-08-17T10:19:38.948Z,99249.69
2022-08-17T10:22:44.137Z,99255.91
2022-08-17T10:25:53.500Z,99259.50
2022-08-17T10:28:30.120Z,99267.28
2022-08-17T10:31:33.125Z,99259.31
2022-08-17T10:34:01.650Z,99262.63
2022-08-17T10:37:11.933Z,99266.78
2022-08-17T10:40:00.237Z,99270.09
2022-08-17T10:42:51.720Z,99269.81
2022-08-17T10:45:31.220Z,99277.84
2022-08-17T10:48:16.735Z,99282.81
2022-08-17T10:50:55.798Z,99282.06
2022-08-17T10:53:31.882Z,99271.00
2022-08-17T10:56:13.764Z,99274.66
2022-08-17T10:59:00.566Z,99278.31
2022-08-17T11:01:37.971Z,99265.41
2022-08-17T11:04:37.919Z,99273.09
2022-08-17T11:07:37.884Z,99269.47
2022-08-17T11:10:33.505Z,99279.31
2022-08-17T11:13:11.515Z,99279.47
2022-08-17T11:16:09.129Z,99285.72
2022-08-17T11:19:08.718Z,99285.09
2022-08-17T11:21:52.704Z,99291.75
2022-08-17T11:24:38.173Z,99285.97
2022-08-17T11:27:16.256Z,99289.31
2022-08-17T11:30:48.967Z,99287.31
2022-08-17T11:33:49.574Z,99291.34
2022-08-17T11:36:53.611Z,99289.44
2022-08-17T11:39:48.080Z,99284.75
2022-08-17T11:42:37.569Z,99291.97
2022-08-17T11:45:35.048Z,99291.63
2022-08-17T11:48:49.809Z,99290.09
2022-08-17T11:51:33.780Z,99295.59
2022-08-17T11:54:50.636Z,99302.22
2022-08-17T11:57:33.748Z,99305.19
2022-08-17T12:00:16.569Z,99313.47
2022-08-17T12:02:49.682Z,99315.47
2022-08-17T12:05:22.966Z,99313.13
2022-08-17T12:08:23.299Z,99318.88
2022-08-17T12:10:53.519Z,99327.34
2022-08-17T12:13:30.546Z,99322.00
2022-08-17T12:16:06.788Z,99322.09
2022-08-17T12:18:39.594Z,99324.66
2022-08-17T12:21:50.028Z,99326.13
2022-08-17T12:24:33.972Z,99318.34
2022-08-17T12:27:07.127Z,99317.13
2022-08-17T12:29:42.801Z,99311.75
2022-08-17T12:32:20.105Z,99319.28
2022-08-17T12:34:50.807Z,99321.97
2022-08-17T12:37:49.052Z,99326.66
2022-08-17T12:43:27.740Z,99328.34
2022-08-17T12:46:19.979Z,99322.66
2022-08-17T12:48:58.837Z,99312.81
2022-08-17T12:51:32.282Z,99301.78
2022-08-17T12:54:02.498Z,99307.00
2022-08-17T12:56:31.514Z,99302.50
2022-08-17T12:58:58.544Z,99297.63
2022-08-17T13:01:26.610Z,99289.78
2022-08-17T13:04:01.950Z,99284.56
2022-08-17T13:06:37.503Z,99293.75
2022-08-17T13:09:35.609Z,99292.25
2022-08-17T13:12:07.944Z,99296.03
2022-08-17T13:14:35.371Z,99292.72
2022-08-17T13:17:13.208Z,99289.56
2022-08-17T13:19:53.128Z,99288.88
2022-08-17T13:22:25.220Z,99291.72
2022-08-17T13:25:00.855Z,99286.75
2022-08-17T13:27:31.918Z,99294.94
2022-08-17T13:30:07.558Z,99295.28
2022-08-17T13:32:48.380Z,99299.34
2022-08-17T13:35:42.828Z,99287.16
2022-08-17T13:38:36.446Z,99290.28
2022-08-17T13:41:07.649Z,99293.56
2022-08-17T13:43:45.501Z,99296.09
2022-08-17T13:46:22.896Z,99294.41
2022-08-17T13:49:10.715Z,99288.75
2022-08-17T13:51:46.503Z,99299.63
2022-08-17T13:54:40.683Z,99291.25
2022-08-17T13:57:25.651Z,99300.22
2022-08-17T14:00:17.496Z,99303.19
2022-08-17T14:02:44.379Z,99298.47
2022-08-17T14:05:11.270Z,99283.53
2022-08-17T14:07:40.755Z,99286.47
2022-08-17T14:10:18.087Z,99280.28
2022-08-17T14:12:45.917Z,99267.84
2022-08-17T14:15:16.436Z,99262.44
2022-08-17T14:17:43.390Z,99266.91
2022-08-17T14:20:13.434Z,99257.38
2022-08-17T14:22:48.234Z,99247.00
2022-08-17T14:25:21.002Z,99255.25
2022-08-17T14:27:53.135Z,99247.09
2022-08-17T14:30:25.084Z,99248.38
2022-08-17T14:32:58.800Z,99241.56
2022-08-17T14:35:28.241Z,99249.59
2022-08-17T14:37:56.394Z,99249.88
2022-08-17T14:40:25.169Z,99246.53
2022-08-17T14:42:55.951Z,99245.97
2022-08-17T14:45:32.625Z,99247.91
2022-08-17T14:48:04.563Z,99253.03
2022-08-17T14:50:32.179Z,99244.41
2022-08-17T14:53:04.455Z,99245.81
2022-08-17T14:55:32.383Z,99248.56
2022-08-17T14:58:04.089Z,99254.78
2022-08-17T15:00:31.888Z,99248.59
2022-08-17T15:03:00.826Z,99240.91
2022-08-17T15:05:35.041Z,99243.66
2022-08-17T15:08:07.063Z,99238.59
2022-08-17T15:10:37.060Z,99238.84
2022-08-17T15:13:21.738Z,99240.81
2022-08-17T15:15:50.016Z,99240.53
2022-08-17T15:18:17.657Z,99236.13
2022-08-17T15:20:46.449Z,99227.84
2022-08-17T15:23:15.736Z,99229.91
2022-08-17T15:25:51.548Z,99230.03
2022-08-17T15:28:22.847Z,99219.84
2022-08-17T15:30:53.798Z,99224.28
2022-08-17T15:33:31.618Z,99219.44
2022-08-17T15:36:04.681Z,99223.16
2022-08-17T15:38:34.007Z,99223.44
2022-08-17T15:41:01.553Z,99224.81
2022-08-17T15:43:33.906Z,99211.59
2022-08-17T15:46:12.135Z,99224.00
2022-08-17T15:48:43.396Z,99235.59
2022-08-17T15:51:17.123Z,99229.78
2022-08-17T15:53:51.375Z,99225.09
2022-08-17T15:56:19.648Z,99229.78
2022-08-17T15:58:50.375Z,99217.81
2022-08-17T16:03:01.430Z,99226.88
2022-08-17T16:04:14.900Z,99232.25
2022-08-17T16:06:54.741Z,99227.19
2022-08-17T16:09:21.547Z,99217.81
2022-08-17T16:11:51.966Z,99211.88
2022-08-17T16:14:22.589Z,99216.44
2022-08-17T16:16:50.836Z,99221.13
2022-08-17T16:19:19.929Z,99225.66
2022-08-17T16:21:46.924Z,99221.81
2022-08-17T16:24:14.893Z,99225.66
2022-08-17T16:26:42.610Z,99228.25
2022-08-17T16:29:09.842Z,99223.56
2022-08-17T16:31:37.787Z,99228.25
2022-08-17T16:34:17.205Z,99228.94
2022-08-17T16:36:51.793Z,99225.22
2022-08-17T16:39:29.005Z,99232.63
2022-08-17T16:41:57.209Z,99229.75
2022-08-17T16:44:27.511Z,99222.31
2022-08-17T16:46:54.415Z,99229.88
2022-08-17T16:49:35.749Z,99235.50
2022-08-17T16:52:09.897Z,99226.50
2022-08-17T16:54:43.750Z,99212.34
2022-08-17T16:57:15.114Z,99218.09
2022-08-17T16:59:47.834Z,99220.56
2022-08-17T17:02:29.770Z,99223.03
2022-08-17T17:05:09.136Z,99221.19
2022-08-17T17:07:55.420Z,99226.25
2022-08-17T17:10:50.024Z,99226.84
2022-08-17T17:13:33.001Z,99227.63
2022-08-17T17:16:36.835Z,99229.03
2022-08-17T17:19:35.388Z,99221.28
2022-08-17T17:22:11.050Z,99233.53
2022-08-17T17:25:03.308Z,99229.22
2022-08-17T17:27:55.067Z,99236.41
2022-08-17T17:31:03.427Z,99245.06
2022-08-17T17:33:50.695Z,99246.28
2022-08-17T17:36:29.949Z,99246.78
2022-08-17T17:39:05.471Z,99248.19
2022-08-17T17:42:07.737Z,99250.13
2022-08-17T17:44:42.683Z,99251.69
2022-08-17T17:47:12.509Z,99254.91
2022-08-17T17:49:45.100Z,99251.94
2022-08-17T17:52:19.700Z,99249.25
2022-08-17T17:55:06.339Z,99253.75
2022-08-17T17:57:51.487Z,99267.56
2022-08-17T18:00:27.962Z,99264.88
2022-08-17T18:03:14.522Z,99262.25
2022-08-17T18:06:21.436Z,99260.59
2022-08-17T18:09:08.364Z,99252.88
2022-08-17T18:12:25.414Z,99251.56
2022-08-17T18:15:26.124Z,99259.09
2022-08-17T18:18:14.209Z,99259.66
2022-08-17T18:20:53.324Z,99267.09
2022-08-17T18:23:28.049Z,99261.84
2022-08-17T18:25:58.092Z,99263.94
2022-08-17T18:28:34.749Z,99265.53
2022-08-17T18:31:21.710Z,99268.22
2022-08-17T18:33:52.811Z,99280.91
2022-08-17T18:36:36.324Z,99288.75
2022-08-17T18:39:26.285Z,99292.00
2022-08-17T18:41:57.330Z,99290.16
2022-08-17T18:44:32.735Z,99296.72
2022-08-17T18:47:20.992Z,99304.41
2022-08-17T18:50:25.608Z,99301.03
2022-08-17T18:52:55.271Z,99304.03
2022-08-17T18:55:27.770Z,99301.13
2022-08-17T18:58:15.630Z,99301.03
2022-08-17T19:00:46.065Z,99306.69
2022-08-17T19:03:15.720Z,99311.47
2022-08-17T19:05:52.133Z,99314.56
2022-08-17T19:08:35.987Z,99313.03
2022-08-17T19:11:10.052Z,99316.03
2022-08-17T19:14:26.894Z,99324.41
2022-08-17T19:17:09.805Z,99326.13
2022-08-17T19:19:53.842Z,99325.03
2022-08-17T19:22:43.802Z,99326.25
2022-08-17T19:25:21.903Z,99337.03
2022-08-17T19:28:21.917Z,99335.94
2022-08-17T19:31:02.031Z,99330.50
2022-08-17T19:33:31.396Z,99336.84
2022-08-17T19:36:10.305Z,99330.81
2022-08-17T19:38:49.868Z,99329.59
2022-08-17T19:42:00.713Z,99328.16
2022-08-17T19:45:03.081Z,99331.56
2022-08-17T19:48:07.145Z,99333.16
2022-08-17T19:50:48.571Z,99348.88
2022-08-17T19:54:01.717Z,99345.19
2022-08-17T19:56:40.887Z,99354.97
2022-08-17T19:59:48.152Z,99351.13
2022-08-17T20:02:35.721Z,99358.31
2022-08-17T20:05:13.348Z,99355.84
2022-08-17T20:07:56.749Z,99362.94
2022-08-17T20:11:02.053Z,99361.72
2022-08-17T20:13:42.818Z,99360.22
2022-08-17T20:16:11.568Z,99366.59
2022-08-17T20:19:01.627Z,99362.78
2022-08-17T20:21:41.181Z,99363.22
2022-08-17T20:24:29.628Z,99369.03
2022-08-17T20:27:12.259Z,99375.53
2022-08-17T20:30:15.531Z,99370.00
2022-08-17T20:33:00.253Z,99366.16
2022-08-17T20:35:36.446Z,99370.50
2022-08-17T20:38:11.386Z,99366.53
2022-08-17T20:41:04.338Z,99365.16
2022-08-17T20:43:34.120Z,99376.59
2022-08-17T20:46:51.390Z,99377.78
2022-08-17T20:49:45.937Z,99380.69
2022-08-17T20:52:45.756Z,99376.84
2022-08-17T20:55:34.185Z,99381.44
2022-08-17T20:58:16.043Z,99388.59
2022-08-17T21:00:48.707Z,99390.53
2022-08-17T21:03:24.116Z,99396.03
2022-08-17T21:06:15.324Z,99404.19
2022-08-17T21:08:53.294Z,99403.78
2022-08-17T21:11:56.808Z,99395.34
2022-08-17T21:14:38.400Z,99394.81
2022-08-17T21:17:17.690Z,99392.22
2022-08-17T21:20:11.535Z,99393.22
2022-08-17T21:23:18.982Z,99391.72
2022-08-17T21:26:06.309Z,99393.72
2022-08-17T21:29:01.211Z,99386.16
2022-08-17T21:32:01.261Z,99381.13
2022-08-17T21:34:36.529Z,99386.53
2022-08-17T21:37:22.347Z,99388.28
2022-08-17T21:40:18.320Z,99379.94
2022-08-17T21:42:53.941Z,99391.03
2022-08-17T21:45:25.324Z,99387.63
2022-08-17T21:48:20.082Z,99397.19
2022-08-17T21:51:01.878Z,99395.41
2022-08-17T21:53:39.936Z,99399.00
2022-08-17T21:56:08.582Z,99399.91
2022-08-17T21:58:40.333Z,99396.50
2022-08-17T22:01:28.634Z,99391.59
2022-08-17T22:04:06.558Z,99395.06
2022-08-17T22:06:56.490Z,99395.25
2022-08-17T22:09:34.321Z,99394.66
2022-08-17T22:12:07.576Z,99407.53
2022-08-17T22:14:53.065Z,99412.75
2022-08-17T22:17:29.766Z,99407.84
2022-08-17T22:20:00.594Z,99423.22
2022-08-17T22:22:59.810Z,99424.13
2022-08-17T22:25:29.624Z,99423.38
2022-08-17T22:28:04.378Z,99419.13
2022-08-17T22:31:01.613Z,99413.38
2022-08-17T22:33:42.058Z,99423.00
2022-08-17T22:36:34.822Z,99412.22
2022-08-17T22:39:42.003Z,99417.66
2022-08-17T22:42:15.307Z,99422.38
2022-08-17T22:44:50.885Z,99425.13
2022-08-17T22:47:18.826Z,99427.00
2022-08-17T22:49:56.584Z,99417.69
2022-08-17T22:52:58.371Z,99422.13
2022-08-17T22:55:45.574Z,99412.19
2022-08-17T22:58:38.199Z,99416.53
2022-08-17T23:01:32.695Z,99421.16
2022-08-17T23:04:05.748Z,99429.63
2022-08-17T23:06:37.811Z,99429.69
2022-08-17T23:09:06.993Z,99429.63
2022-08-17T23:11:58.469Z,99433.94
2022-08-17T23:14:31.672Z,99427.28
2022-08-17T23:16:59.765Z,99429.78
2022-08-17T23:19:28.401Z,99443.47
2022-08-17T23:21:57.506Z,99435.91
2022-08-17T23:24:43.483Z,99447.03
2022-08-17T23:27:11.521Z,99450.38
2022-08-17T23:29:41.333Z,99459.78
2022-08-17T23:32:13.778Z,99444.25
2022-08-17T23:34:43.687Z,99444.25
2022-08-17T23:37:11.807Z,99445.06
2022-08-17T23:39:39.557Z,99442.56
2022-08-17T23:42:12.313Z,99442.56
2022-08-17T23:44:43.524Z,99436.72
2022-08-17T23:47:11.106Z,99448.88
2022-08-17T23:49:38.857Z,99443.78
2022-08-17T23:52:11.523Z,99435.13
2022-08-17T23:54:46.649Z,99442.19
2022-08-17T23:57:33.819Z,99445.59
